Mare Frisium — PCBM — position and weather

sailwx.info

Track history (hours):
 
Tides and Currents Weather Stations Pressure Air Temp Water Temp Dewpoint Dewpoint Depression Visibility Wind Speed Wind Dir Waves Ship Positions

Mare Frisium (Netherlands)

Ship's website: http://www.tallship-company.com/mare-frisium-2/

Last reported at 2020-Aug-10 00:30 UTC. Time now 2020-Aug-10 02:37 UTC.
Position N 53°33' E 009°59'.

Length 50 m; draft 2.8 m.

Type: Sailing vessel. MMSI: 244596000.

Date/timePositionNaut miles runAvg speedWind from/ knotsBaromVisibWave heightAir tempDewpointWater temp
2020-Aug-10 00:30N 53°33' E 009°59'0 0.0
2020-Aug-09 23:30N 53°33' E 009°59'0 0.0
2020-Aug-09 20:00N 53°33' E 009°59'0 0.0
2020-Aug-09 18:30N 53°33' E 009°59'0 0.0
2020-Aug-09 16:30N 53°33' E 009°59'0 0.0
2020-Aug-09 15:00N 53°33' E 009°59'1 0.3
2020-Aug-09 12:30N 53°33' E 009°57'6 4.1
2020-Aug-09 11:00N 53°34' E 009°47'5 3.1
2020-Aug-09 09:30N 53°33' E 009°55'2 1.2
2020-Aug-09 07:30N 53°33' E 009°59'0 0.0
2020-Aug-09 07:00N 53°33' E 009°59'0 0.0
2020-Aug-09 05:30N 53°33' E 009°59'0 0.0
2020-Aug-09 04:30N 53°33' E 009°59'0 0.0
2020-Aug-08 23:30N 53°33' E 009°59'0 0.0
2020-Aug-08 22:30N 53°33' E 009°59'0 0.0
2020-Aug-08 21:30N 53°33' E 009°59'0 0.0
2020-Aug-08 17:30N 53°33' E 009°59'1 0.3
2020-Aug-08 14:30N 53°33' E 009°57'10 6.6
2020-Aug-08 13:00N 53°34' E 009°41'6 4.0
2020-Aug-08 11:30N 53°33' E 009°51'1 2.2
2020-Aug-08 11:00N 53°33' E 009°52'4 2.6
2020-Aug-08 09:30N 53°33' E 009°59'0 0.0
2020-Aug-08 08:59N 53°33' E 009°59'0 0.0
2020-Aug-08 07:59N 53°33' E 009°59'0 0.0
2020-Aug-08 04:59N 53°33' E 009°59'0 0.0
2020-Aug-08 03:56N 53°33' E 009°59'0 0.0
2020-Aug-08 03:29N 53°33' E 009°59'0 0.0
2020-Aug-08 02:59N 53°33' E 009°59'0 0.0
2020-Aug-08 00:59N 53°33' E 009°59'0 0.0
2020-Aug-07 23:59N 53°33' E 009°59'0 0.0
2020-Aug-07 21:59N 53°33' E 009°59'0 0.0
2020-Aug-07 19:29N 53°33' E 009°59'6 2.9
2020-Aug-07 17:30N 53°33' E 009°49'4 4.4
2020-Aug-07 16:30N 53°34' E 009°42'10 4.0
2020-Aug-07 14:00N 53°33' E 009°59'0 0.0
2020-Aug-07 13:01N 53°33' E 009°59'0 0.0
2020-Aug-07 12:31N 53°33' E 009°59'0 0.0
2020-Aug-07 10:30N 53°33' E 009°59'0 0.0
2020-Aug-07 10:00N 53°33' E 009°59'0 0.0
2020-Aug-07 06:30N 53°33' E 009°59'0 0.0
2020-Aug-07 05:00N 53°33' E 009°59'0 0.0
2020-Aug-07 04:30N 53°33' E 009°59'0 0.0
2020-Aug-07 04:00N 53°33' E 009°59'0 0.0
2020-Aug-07 03:30N 53°33' E 009°59'0 0.0
2020-Aug-07 01:00N 53°33' E 009°59'0 0.0
2020-Aug-06 23:30N 53°33' E 009°59'0 0.0
2020-Aug-06 21:31N 53°33' E 009°59'0 0.0
2020-Aug-06 20:00N 53°33' E 009°59'0 0.0
2020-Aug-06 16:00N 53°33' E 009°59'0 0.0
2020-Aug-06 13:30N 53°33' E 009°59'0 0.0
2020-Aug-06 06:00N 53°33' E 009°59'0 0.0
2020-Aug-06 05:30N 53°33' E 009°59'0 0.0
2020-Aug-06 04:30N 53°33' E 009°59'0 0.0
2020-Aug-06 04:00N 53°33' E 009°59'0 0.0
2020-Aug-06 02:00N 53°33' E 009°59'0 0.0
2020-Aug-06 01:30N 53°33' E 009°59'0 0.0
2020-Aug-05 22:30N 53°33' E 009°59'0 0.0
2020-Aug-05 20:00N 53°33' E 009°59'0 0.0
2020-Aug-05 19:30N 53°33' E 009°59'0 0.0
2020-Aug-05 17:30N 53°33' E 009°59'0 0.0
2020-Aug-05 14:00N 53°33' E 009°59'0 0.0
2020-Aug-05 13:00N 53°33' E 009°59'0 0.0
2020-Aug-05 12:30N 53°33' E 009°59'0 0.0
2020-Aug-05 09:30N 53°33' E 009°59'0 0.0
2020-Aug-05 06:30N 53°33' E 009°59'0 0.0
2020-Aug-05 04:30N 53°33' E 009°59'0 0.0
2020-Aug-05 00:30N 53°33' E 009°59'0 0.0
2020-Aug-04 22:30N 53°33' E 009°59'0 0.0
2020-Aug-04 21:00N 53°33' E 009°59'0 0.0
2020-Aug-04 20:00N 53°33' E 009°59'0 0.0
2020-Aug-04 17:00N 53°33' E 009°59'0 0.0
2020-Aug-04 11:00N 53°33' E 009°59'0 0.0
2020-Aug-04 09:30N 53°33' E 009°59'0 0.0
2020-Aug-04 09:00N 53°33' E 009°59'0 0.0
2020-Aug-04 08:30N 53°33' E 009°59'0 0.0
2020-Aug-04 05:00N 53°33' E 009°59'0 0.0
2020-Aug-04 04:00N 53°33' E 009°59'0 0.0
2020-Aug-04 03:00N 53°33' E 009°59'0 0.0
2020-Aug-03 22:30N 53°33' E 009°59'0 0.0
2020-Aug-03 17:30N 53°33' E 009°59'0 0.0
2020-Aug-03 16:30N 53°33' E 009°59'0 0.0
2020-Aug-03 15:30N 53°33' E 009°59'0 0.0
2020-Aug-03 13:00N 53°33' E 009°59'0 0.0
2020-Aug-03 11:00N 53°33' E 009°59'0 0.0
2020-Aug-03 10:00N 53°33' E 009°59'0 0.0
2020-Aug-03 09:30N 53°33' E 009°59'0 0.0
2020-Aug-03 09:00N 53°33' E 009°59'0 0.0
2020-Aug-03 07:00N 53°33' E 009°59'0 0.0
2020-Aug-03 05:30N 53°33' E 009°59'0 0.0
2020-Aug-03 04:30N 53°33' E 009°59'0 0.0
2020-Aug-03 03:30N 53°33' E 009°59'0 0.0
2020-Aug-03 00:00N 53°33' E 009°59'0 0.0
2020-Aug-02 17:30N 53°33' E 009°59'0 0.0
2020-Aug-02 16:30N 53°33' E 009°59'0 0.0
2020-Aug-02 13:29N 53°33' E 009°59'0 0.1
2020-Aug-02 13:00N 53°33' E 009°59'2 4.0
2020-Aug-02 12:30N 53°32' E 009°55'5 2.7
2020-Aug-02 10:30N 53°34' E 009°47'2 4.1
2020-Aug-02 10:00N 53°33' E 009°50'5 1.5
2020-Aug-02 06:30N 53°33' E 009°59'0 0.0
2020-Aug-02 05:00N 53°33' E 009°59'0 0.0
2020-Aug-02 04:30N 53°33' E 009°59'0 0.0
2020-Aug-02 04:00N 53°33' E 009°59'0 0.0
2020-Aug-02 03:00N 53°33' E 009°59'0 0.0
2020-Aug-02 02:00N 53°33' E 009°59'0 0.0
2020-Aug-02 01:00N 53°33' E 009°59'0 0.0
2020-Aug-01 22:30N 53°33' E 009°59'0 0.0
2020-Aug-01 16:00N 53°33' E 009°59'0 0.0
2020-Aug-01 14:00N 53°33' E 009°59'8 3.2
2020-Aug-01 11:29N 53°34' E 009°45'8 3.8
2020-Aug-01 09:30N 53°33' E 009°58'1 0.1
2020-Aug-01 05:28N 53°33' E 009°59'0 0.0
2020-Aug-01 02:58N 53°33' E 009°59'0 0.0
2020-Aug-01 02:28N 53°33' E 009°59'0 0.0
2020-Aug-01 00:28N 53°33' E 009°59'0 0.0
2020-Jul-31 23:58N 53°33' E 009°59'0 0.0
2020-Jul-31 21:28N 53°33' E 009°59'8 2.3
2020-Jul-31 18:00N 53°34' E 009°45'8 3.2
2020-Jul-31 15:28N 53°33' E 009°59'0 0.0
2020-Jul-31 11:56N 53°33' E 009°59'0 0.0
2020-Jul-31 09:59N 53°33' E 009°59'0 0.0
2020-Jul-31 06:29N 53°33' E 009°59'0 0.0
2020-Jul-31 05:59N 53°33' E 009°59'0 0.0
2020-Jul-31 04:59N 53°33' E 009°59'0 0.0
2020-Jul-31 03:59N 53°33' E 009°59'0 0.0
2020-Jul-31 00:59N 53°33' E 009°59'  
Track history (hours):
 
Tides and Currents Weather Stations Pressure Air Temp Water Temp Dewpoint Dewpoint Depression Visibility Wind Speed Wind Dir Waves Ship Positions

Mare Frisium (Netherlands)

Ship's website: http://www.tallship-company.com/mare-frisium-2/

Last reported at 2020-Aug-10 00:30 UTC. Time now 2020-Aug-10 02:37 UTC.
Position N 53°33' E 009°59'.

Length 50 m; draft 2.8 m.

Type: Sailing vessel. MMSI: 244596000.

Date/timePositionNaut miles runAvg speedWind from/ knotsBaromVisibWave heightAir tempDewpointWater temp
2020-Aug-10 00:30N 53°33' E 009°59'0 0.0
2020-Aug-09 23:30N 53°33' E 009°59'0 0.0
2020-Aug-09 20:00N 53°33' E 009°59'0 0.0
2020-Aug-09 18:30N 53°33' E 009°59'0 0.0
2020-Aug-09 16:30N 53°33' E 009°59'0 0.0
2020-Aug-09 15:00N 53°33' E 009°59'1 0.3
2020-Aug-09 12:30N 53°33' E 009°57'6 4.1
2020-Aug-09 11:00N 53°34' E 009°47'5 3.1
2020-Aug-09 09:30N 53°33' E 009°55'2 1.2
2020-Aug-09 07:30N 53°33' E 009°59'0 0.0
2020-Aug-09 07:00N 53°33' E 009°59'0 0.0
2020-Aug-09 05:30N 53°33' E 009°59'0 0.0
2020-Aug-09 04:30N 53°33' E 009°59'0 0.0
2020-Aug-08 23:30N 53°33' E 009°59'0 0.0
2020-Aug-08 22:30N 53°33' E 009°59'0 0.0
2020-Aug-08 21:30N 53°33' E 009°59'0 0.0
2020-Aug-08 17:30N 53°33' E 009°59'1 0.3
2020-Aug-08 14:30N 53°33' E 009°57'10 6.6
2020-Aug-08 13:00N 53°34' E 009°41'6 4.0
2020-Aug-08 11:30N 53°33' E 009°51'1 2.2
2020-Aug-08 11:00N 53°33' E 009°52'4 2.6
2020-Aug-08 09:30N 53°33' E 009°59'0 0.0
2020-Aug-08 08:59N 53°33' E 009°59'0 0.0
2020-Aug-08 07:59N 53°33' E 009°59'0 0.0
2020-Aug-08 04:59N 53°33' E 009°59'0 0.0
2020-Aug-08 03:56N 53°33' E 009°59'0 0.0
2020-Aug-08 03:29N 53°33' E 009°59'0 0.0
2020-Aug-08 02:59N 53°33' E 009°59'0 0.0
2020-Aug-08 00:59N 53°33' E 009°59'0 0.0
2020-Aug-07 23:59N 53°33' E 009°59'0 0.0
2020-Aug-07 21:59N 53°33' E 009°59'0 0.0
2020-Aug-07 19:29N 53°33' E 009°59'6 2.9
2020-Aug-07 17:30N 53°33' E 009°49'4 4.4
2020-Aug-07 16:30N 53°34' E 009°42'10 4.0
2020-Aug-07 14:00N 53°33' E 009°59'0 0.0
2020-Aug-07 13:01N 53°33' E 009°59'0 0.0
2020-Aug-07 12:31N 53°33' E 009°59'0 0.0
2020-Aug-07 10:30N 53°33' E 009°59'0 0.0
2020-Aug-07 10:00N 53°33' E 009°59'0 0.0
2020-Aug-07 06:30N 53°33' E 009°59'0 0.0
2020-Aug-07 05:00N 53°33' E 009°59'0 0.0
2020-Aug-07 04:30N 53°33' E 009°59'0 0.0
2020-Aug-07 04:00N 53°33' E 009°59'0 0.0
2020-Aug-07 03:30N 53°33' E 009°59'0 0.0
2020-Aug-07 01:00N 53°33' E 009°59'0 0.0
2020-Aug-06 23:30N 53°33' E 009°59'0 0.0
2020-Aug-06 21:31N 53°33' E 009°59'0 0.0
2020-Aug-06 20:00N 53°33' E 009°59'0 0.0
2020-Aug-06 16:00N 53°33' E 009°59'0 0.0
2020-Aug-06 13:30N 53°33' E 009°59'0 0.0
2020-Aug-06 06:00N 53°33' E 009°59'0 0.0
2020-Aug-06 05:30N 53°33' E 009°59'0 0.0
2020-Aug-06 04:30N 53°33' E 009°59'0 0.0
2020-Aug-06 04:00N 53°33' E 009°59'0 0.0
2020-Aug-06 02:00N 53°33' E 009°59'0 0.0
2020-Aug-06 01:30N 53°33' E 009°59'0 0.0
2020-Aug-05 22:30N 53°33' E 009°59'0 0.0
2020-Aug-05 20:00N 53°33' E 009°59'0 0.0
2020-Aug-05 19:30N 53°33' E 009°59'0 0.0
2020-Aug-05 17:30N 53°33' E 009°59'0 0.0
2020-Aug-05 14:00N 53°33' E 009°59'0 0.0
2020-Aug-05 13:00N 53°33' E 009°59'0 0.0
2020-Aug-05 12:30N 53°33' E 009°59'0 0.0
2020-Aug-05 09:30N 53°33' E 009°59'0 0.0
2020-Aug-05 06:30N 53°33' E 009°59'0 0.0
2020-Aug-05 04:30N 53°33' E 009°59'0 0.0
2020-Aug-05 00:30N 53°33' E 009°59'0 0.0
2020-Aug-04 22:30N 53°33' E 009°59'0 0.0
2020-Aug-04 21:00N 53°33' E 009°59'0 0.0
2020-Aug-04 20:00N 53°33' E 009°59'0 0.0
2020-Aug-04 17:00N 53°33' E 009°59'0 0.0
2020-Aug-04 11:00N 53°33' E 009°59'0 0.0
2020-Aug-04 09:30N 53°33' E 009°59'0 0.0
2020-Aug-04 09:00N 53°33' E 009°59'0 0.0
2020-Aug-04 08:30N 53°33' E 009°59'0 0.0
2020-Aug-04 05:00N 53°33' E 009°59'0 0.0
2020-Aug-04 04:00N 53°33' E 009°59'0 0.0
2020-Aug-04 03:00N 53°33' E 009°59'0 0.0
2020-Aug-03 22:30N 53°33' E 009°59'0 0.0
2020-Aug-03 17:30N 53°33' E 009°59'0 0.0
2020-Aug-03 16:30N 53°33' E 009°59'0 0.0
2020-Aug-03 15:30N 53°33' E 009°59'0 0.0
2020-Aug-03 13:00N 53°33' E 009°59'0 0.0
2020-Aug-03 11:00N 53°33' E 009°59'0 0.0
2020-Aug-03 10:00N 53°33' E 009°59'0 0.0
2020-Aug-03 09:30N 53°33' E 009°59'0 0.0
2020-Aug-03 09:00N 53°33' E 009°59'0 0.0
2020-Aug-03 07:00N 53°33' E 009°59'0 0.0
2020-Aug-03 05:30N 53°33' E 009°59'0 0.0
2020-Aug-03 04:30N 53°33' E 009°59'0 0.0
2020-Aug-03 03:30N 53°33' E 009°59'0 0.0
2020-Aug-03 00:00N 53°33' E 009°59'0 0.0
2020-Aug-02 17:30N 53°33' E 009°59'0 0.0
2020-Aug-02 16:30N 53°33' E 009°59'0 0.0
2020-Aug-02 13:29N 53°33' E 009°59'0 0.1
2020-Aug-02 13:00N 53°33' E 009°59'2 4.0
2020-Aug-02 12:30N 53°32' E 009°55'5 2.7
2020-Aug-02 10:30N 53°34' E 009°47'2 4.1
2020-Aug-02 10:00N 53°33' E 009°50'5 1.5
2020-Aug-02 06:30N 53°33' E 009°59'0 0.0
2020-Aug-02 05:00N 53°33' E 009°59'0 0.0
2020-Aug-02 04:30N 53°33' E 009°59'0 0.0
2020-Aug-02 04:00N 53°33' E 009°59'0 0.0
2020-Aug-02 03:00N 53°33' E 009°59'0 0.0
2020-Aug-02 02:00N 53°33' E 009°59'0 0.0
2020-Aug-02 01:00N 53°33' E 009°59'0 0.0
2020-Aug-01 22:30N 53°33' E 009°59'0 0.0
2020-Aug-01 16:00N 53°33' E 009°59'0 0.0
2020-Aug-01 14:00N 53°33' E 009°59'8 3.2
2020-Aug-01 11:29N 53°34' E 009°45'8 3.8
2020-Aug-01 09:30N 53°33' E 009°58'1 0.1
2020-Aug-01 05:28N 53°33' E 009°59'0 0.0
2020-Aug-01 02:58N 53°33' E 009°59'0 0.0
2020-Aug-01 02:28N 53°33' E 009°59'0 0.0
2020-Aug-01 00:28N 53°33' E 009°59'0 0.0
2020-Jul-31 23:58N 53°33' E 009°59'0 0.0
2020-Jul-31 21:28N 53°33' E 009°59'8 2.3
2020-Jul-31 18:00N 53°34' E 009°45'8 3.2
2020-Jul-31 15:28N 53°33' E 009°59'0 0.0
2020-Jul-31 11:56N 53°33' E 009°59'0 0.0
2020-Jul-31 09:59N 53°33' E 009°59'0 0.0
2020-Jul-31 06:29N 53°33' E 009°59'0 0.0
2020-Jul-31 05:59N 53°33' E 009°59'0 0.0
2020-Jul-31 04:59N 53°33' E 009°59'0 0.0
2020-Jul-31 03:59N 53°33' E 009°59'0 0.0
2020-Jul-31 00:59N 53°33' E 009°59'  

Dump ship's entire track history